sensor_id;sensor_type;location;lat;lon;timestamp;temperature;humidity
6375;DHT22;35400;45.472;-122.822;2023-05-29T00:00:36;22.90;93.50
6375;DHT22;35400;45.472;-122.822;2023-05-29T00:03:03;23.00;92.80
6375;DHT22;35400;45.472;-122.822;2023-05-29T00:05:31;23.00;92.80
6375;DHT22;35400;45.472;-122.822;2023-05-29T00:07:58;23.00;92.30
6375;DHT22;35400;45.472;-122.822;2023-05-29T00:10:25;23.00;92.50
6375;DHT22;35400;45.472;-122.822;2023-05-29T00:12:51;22.90;92.50
6375;DHT22;35400;45.472;-122.822;2023-05-29T00:15:18;22.90;92.70
6375;DHT22;35400;45.472;-122.822;2023-05-29T00:17:45;22.90;92.80
6375;DHT22;35400;45.472;-122.822;2023-05-29T00:20:12;22.90;92.80
6375;DHT22;35400;45.472;-122.822;2023-05-29T00:22:39;22.80;92.80
6375;DHT22;35400;45.472;-122.822;2023-05-29T00:25:07;22.80;92.50
6375;DHT22;35400;45.472;-122.822;2023-05-29T00:27:34;22.80;92.50
6375;DHT22;35400;45.472;-122.822;2023-05-29T00:30:02;22.70;92.90
6375;DHT22;35400;45.472;-122.822;2023-05-29T00:32:29;22.70;92.30
6375;DHT22;35400;45.472;-122.822;2023-05-29T00:34:56;22.60;93.10
6375;DHT22;35400;45.472;-122.822;2023-05-29T00:37:23;22.60;92.70
6375;DHT22;35400;45.472;-122.822;2023-05-29T00:39:50;22.50;93.10
6375;DHT22;35400;45.472;-122.822;2023-05-29T00:42:17;22.40;93.00
6375;DHT22;35400;45.472;-122.822;2023-05-29T00:44:44;22.40;92.70
6375;DHT22;35400;45.472;-122.822;2023-05-29T00:47:13;22.30;92.30
6375;DHT22;35400;45.472;-122.822;2023-05-29T00:49:40;22.30;92.50
6375;DHT22;35400;45.472;-122.822;2023-05-29T00:52:09;22.20;92.70
6375;DHT22;35400;45.472;-122.822;2023-05-29T00:54:37;22.10;92.80
6375;DHT22;35400;45.472;-122.822;2023-05-29T00:57:04;22.00;92.80
6375;DHT22;35400;45.472;-122.822;2023-05-29T00:59:33;22.00;92.90
6375;DHT22;35400;45.472;-122.822;2023-05-29T01:02:01;21.90;93.60
6375;DHT22;35400;45.472;-122.822;2023-05-29T01:04:29;21.90;93.60
6375;DHT22;35400;45.472;-122.822;2023-05-29T01:06:55;21.90;93.20
6375;DHT22;35400;45.472;-122.822;2023-05-29T01:09:23;21.80;93.10
6375;DHT22;35400;45.472;-122.822;2023-05-29T01:18:07;21.70;93.70
6375;DHT22;35400;45.472;-122.822;2023-05-29T01:21:05;21.70;93.90
6375;DHT22;35400;45.472;-122.822;2023-05-29T01:29:10;21.50;94.60
6375;DHT22;35400;45.472;-122.822;2023-05-29T01:31:39;21.50;92.10
6375;DHT22;35400;45.472;-122.822;2023-05-29T01:34:08;21.30;91.90
6375;DHT22;35400;45.472;-122.822;2023-05-29T01:36:35;21.40;91.70
6375;DHT22;35400;45.472;-122.822;2023-05-29T01:39:03;21.30;91.90
6375;DHT22;35400;45.472;-122.822;2023-05-29T01:41:32;21.30;91.70
6375;DHT22;35400;45.472;-122.822;2023-05-29T01:44:01;21.30;91.90
6375;DHT22;35400;45.472;-122.822;2023-05-29T01:46:29;21.30;92.10
6375;DHT22;35400;45.472;-122.822;2023-05-29T01:48:56;21.20;91.60
6375;DHT22;35400;45.472;-122.822;2023-05-29T01:51:26;21.20;91.80
6375;DHT22;35400;45.472;-122.822;2023-05-29T01:53:53;21.20;91.90
6375;DHT22;35400;45.472;-122.822;2023-05-29T01:56:21;21.20;92.00
6375;DHT22;35400;45.472;-122.822;2023-05-29T01:58:49;21.20;91.60
6375;DHT22;35400;45.472;-122.822;2023-05-29T02:01:17;21.20;91.60
6375;DHT22;35400;45.472;-122.822;2023-05-29T02:03:43;21.10;91.50
6375;DHT22;35400;45.472;-122.822;2023-05-29T02:06:10;21.10;91.50
6375;DHT22;35400;45.472;-122.822;2023-05-29T02:08:37;21.10;91.80
6375;DHT22;35400;45.472;-122.822;2023-05-29T02:11:04;21.00;91.90
6375;DHT22;35400;45.472;-122.822;2023-05-29T02:13:31;21.00;92.10
6375;DHT22;35400;45.472;-122.822;2023-05-29T02:15:58;20.90;92.30
6375;DHT22;35400;45.472;-122.822;2023-05-29T02:18:26;20.90;92.70
6375;DHT22;35400;45.472;-122.822;2023-05-29T02:20:52;20.80;92.80
6375;DHT22;35400;45.472;-122.822;2023-05-29T02:23:22;20.80;93.00
6375;DHT22;35400;45.472;-122.822;2023-05-29T02:25:51;20.80;92.80
6375;DHT22;35400;45.472;-122.822;2023-05-29T02:28:17;20.80;92.80
6375;DHT22;35400;45.472;-122.822;2023-05-29T02:30:44;20.80;92.50
6375;DHT22;35400;45.472;-122.822;2023-05-29T02:33:11;20.80;92.20
6375;DHT22;35400;45.472;-122.822;2023-05-29T02:35:38;20.80;92.00
6375;DHT22;35400;45.472;-122.822;2023-05-29T02:38:05;20.70;92.00
6375;DHT22;35400;45.472;-122.822;2023-05-29T02:40:31;20.70;92.10
6375;DHT22;35400;45.472;-122.822;2023-05-29T02:42:58;20.60;92.20
6375;DHT22;35400;45.472;-122.822;2023-05-29T02:45:25;20.50;91.80
6375;DHT22;35400;45.472;-122.822;2023-05-29T02:47:53;20.50;92.00
6375;DHT22;35400;45.472;-122.822;2023-05-29T02:50:20;20.50;92.70
6375;DHT22;35400;45.472;-122.822;2023-05-29T02:52:47;20.50;92.40
6375;DHT22;35400;45.472;-122.822;2023-05-29T02:55:15;20.40;92.60
6375;DHT22;35400;45.472;-122.822;2023-05-29T02:57:42;20.30;92.70
6375;DHT22;35400;45.472;-122.822;2023-05-29T03:00:10;20.20;92.80
6375;DHT22;35400;45.472;-122.822;2023-05-29T03:02:37;20.20;92.80
6375;DHT22;35400;45.472;-122.822;2023-05-29T03:05:04;20.10;92.80
6375;DHT22;35400;45.472;-122.822;2023-05-29T03:07:32;20.00;92.90
6375;DHT22;35400;45.472;-122.822;2023-05-29T03:09:59;20.00;93.00
6375;DHT22;35400;45.472;-122.822;2023-05-29T03:12:27;19.90;93.10
6375;DHT22;35400;45.472;-122.822;2023-05-29T03:14:55;19.90;93.30
6375;DHT22;35400;45.472;-122.822;2023-05-29T03:17:22;19.80;93.30
6375;DHT22;35400;45.472;-122.822;2023-05-29T03:19:50;19.70;93.60
6375;DHT22;35400;45.472;-122.822;2023-05-29T03:22:17;19.60;93.70
6375;DHT22;35400;45.472;-122.822;2023-05-29T03:24:44;19.60;93.90
6375;DHT22;35400;45.472;-122.822;2023-05-29T03:27:12;19.50;94.10
6375;DHT22;35400;45.472;-122.822;2023-05-29T03:29:40;19.50;94.20
6375;DHT22;35400;45.472;-122.822;2023-05-29T03:32:07;19.40;94.30
6375;DHT22;35400;45.472;-122.822;2023-05-29T03:34:34;19.30;94.40
6375;DHT22;35400;45.472;-122.822;2023-05-29T03:37:03;19.20;94.70
6375;DHT22;35400;45.472;-122.822;2023-05-29T03:39:31;19.20;94.70
6375;DHT22;35400;45.472;-122.822;2023-05-29T03:41:58;19.10;94.90
6375;DHT22;35400;45.472;-122.822;2023-05-29T03:44:27;19.00;95.00
6375;DHT22;35400;45.472;-122.822;2023-05-29T03:46:54;18.90;95.40
6375;DHT22;35400;45.472;-122.822;2023-05-29T03:49:21;18.90;95.40
6375;DHT22;35400;45.472;-122.822;2023-05-29T03:51:48;18.80;95.50
6375;DHT22;35400;45.472;-122.822;2023-05-29T03:54:16;18.70;95.60
6375;DHT22;35400;45.472;-122.822;2023-05-29T03:56:44;18.70;95.70
6375;DHT22;35400;45.472;-122.822;2023-05-29T03:59:13;18.60;95.70
6375;DHT22;35400;45.472;-122.822;2023-05-29T04:01:39;18.50;95.80
6375;DHT22;35400;45.472;-122.822;2023-05-29T04:04:06;18.50;95.90
6375;DHT22;35400;45.472;-122.822;2023-05-29T04:06:33;18.40;96.00
6375;DHT22;35400;45.472;-122.822;2023-05-29T04:09:05;18.40;96.10
6375;DHT22;35400;45.472;-122.822;2023-05-29T04:11:35;18.30;96.30
6375;DHT22;35400;45.472;-122.822;2023-05-29T04:14:02;18.20;96.40
6375;DHT22;35400;45.472;-122.822;2023-05-29T04:16:29;18.20;96.50
6375;DHT22;35400;45.472;-122.822;2023-05-29T04:18:56;18.10;96.60
6375;DHT22;35400;45.472;-122.822;2023-05-29T04:21:26;18.10;96.80
6375;DHT22;35400;45.472;-122.822;2023-05-29T04:23:53;18.00;96.90
6375;DHT22;35400;45.472;-122.822;2023-05-29T04:26:22;18.00;97.00
6375;DHT22;35400;45.472;-122.822;2023-05-29T04:28:55;17.90;97.10
6375;DHT22;35400;45.472;-122.822;2023-05-29T04:31:26;17.90;97.20
6375;DHT22;35400;45.472;-122.822;2023-05-29T04:33:54;17.80;97.30
6375;DHT22;35400;45.472;-122.822;2023-05-29T04:36:26;17.80;97.40
6375;DHT22;35400;45.472;-122.822;2023-05-29T04:39:04;17.70;97.50
6375;DHT22;35400;45.472;-122.822;2023-05-29T04:41:31;17.70;97.70
6375;DHT22;35400;45.472;-122.822;2023-05-29T04:44:00;17.60;97.70
6375;DHT22;35400;45.472;-122.822;2023-05-29T04:46:34;17.60;97.80
6375;DHT22;35400;45.472;-122.822;2023-05-29T04:49:01;17.50;98.00
6375;DHT22;35400;45.472;-122.822;2023-05-29T04:51:29;17.50;98.20
6375;DHT22;35400;45.472;-122.822;2023-05-29T04:53:56;17.40;98.20
6375;DHT22;35400;45.472;-122.822;2023-05-29T04:56:23;17.40;98.70
6375;DHT22;35400;45.472;-122.822;2023-05-29T04:58:50;17.30;98.40
6375;DHT22;35400;45.472;-122.822;2023-05-29T05:01:18;17.30;98.50
6375;DHT22;35400;45.472;-122.822;2023-05-29T05:03:45;17.20;98.40
6375;DHT22;35400;45.472;-122.822;2023-05-29T05:06:12;17.10;98.40
6375;DHT22;35400;45.472;-122.822;2023-05-29T05:08:39;17.10;98.40
6375;DHT22;35400;45.472;-122.822;2023-05-29T05:11:06;17.00;98.60
6375;DHT22;35400;45.472;-122.822;2023-05-29T05:13:33;17.00;98.80
6375;DHT22;35400;45.472;-122.822;2023-05-29T05:16:00;16.90;98.80
6375;DHT22;35400;45.472;-122.822;2023-05-29T05:18:28;16.90;99.00
6375;DHT22;35400;45.472;-122.822;2023-05-29T05:21:00;16.80;98.90
6375;DHT22;35400;45.472;-122.822;2023-05-29T05:23:30;16.70;99.00
6375;DHT22;35400;45.472;-122.822;2023-05-29T05:25:56;16.70;99.10
6375;DHT22;35400;45.472;-122.822;2023-05-29T05:28:23;16.60;99.10
6375;DHT22;35400;45.472;-122.822;2023-05-29T05:30:50;16.60;99.40
6375;DHT22;35400;45.472;-122.822;2023-05-29T05:33:18;16.50;99.20
6375;DHT22;35400;45.472;-122.822;2023-05-29T05:35:45;16.50;99.30
6375;DHT22;35400;45.472;-122.822;2023-05-29T05:38:12;16.40;99.20
6375;DHT22;35400;45.472;-122.822;2023-05-29T05:40:39;16.40;99.20
6375;DHT22;35400;45.472;-122.822;2023-05-29T05:43:13;16.30;99.20
6375;DHT22;35400;45.472;-122.822;2023-05-29T05:45:58;16.30;99.30
6375;DHT22;35400;45.472;-122.822;2023-05-29T05:48:25;16.20;99.40
6375;DHT22;35400;45.472;-122.822;2023-05-29T05:50:53;16.10;99.50
6375;DHT22;35400;45.472;-122.822;2023-05-29T05:53:19;16.10;99.60
6375;DHT22;35400;45.472;-122.822;2023-05-29T05:55:47;16.00;99.70
6375;DHT22;35400;45.472;-122.822;2023-05-29T05:58:14;16.00;99.80
6375;DHT22;35400;45.472;-122.822;2023-05-29T06:00:42;15.90;99.80
6375;DHT22;35400;45.472;-122.822;2023-05-29T06:03:09;15.90;99.90
6375;DHT22;35400;45.472;-122.822;2023-05-29T06:06:00;15.80;99.90
6375;DHT22;35400;45.472;-122.822;2023-05-29T06:08:28;15.70;99.90
6375;DHT22;35400;45.472;-122.822;2023-05-29T06:10:56;15.70;99.90
6375;DHT22;35400;45.472;-122.822;2023-05-29T06:13:23;15.60;99.90
6375;DHT22;35400;45.472;-122.822;2023-05-29T06:15:56;15.60;99.90
6375;DHT22;35400;45.472;-122.822;2023-05-29T06:18:23;15.50;99.90
6375;DHT22;35400;45.472;-122.822;2023-05-29T06:20:50;15.50;99.90
6375;DHT22;35400;45.472;-122.822;2023-05-29T06:23:17;15.40;99.90
6375;DHT22;35400;45.472;-122.822;2023-05-29T06:25:43;15.30;99.90
6375;DHT22;35400;45.472;-122.822;2023-05-29T06:28:10;15.30;99.90
6375;DHT22;35400;45.472;-122.822;2023-05-29T06:30:39;15.20;99.90
6375;DHT22;35400;45.472;-122.822;2023-05-29T06:33:07;15.20;99.90
6375;DHT22;35400;45.472;-122.822;2023-05-29T06:35:36;15.10;99.90
6375;DHT22;35400;45.472;-122.822;2023-05-29T06:38:04;15.00;99.90
6375;DHT22;35400;45.472;-122.822;2023-05-29T06:40:31;15.00;99.90
6375;DHT22;35400;45.472;-122.822;2023-05-29T06:42:57;14.90;99.90
6375;DHT22;35400;45.472;-122.822;2023-05-29T06:45:37;14.90;99.90
6375;DHT22;35400;45.472;-122.822;2023-05-29T06:48:05;14.80;99.90
6375;DHT22;35400;45.472;-122.822;2023-05-29T06:50:32;14.80;99.90
6375;DHT22;35400;45.472;-122.822;2023-05-29T06:53:13;14.70;99.90
6375;DHT22;35400;45.472;-122.822;2023-05-29T06:55:47;14.60;99.90
6375;DHT22;35400;45.472;-122.822;2023-05-29T06:58:14;14.60;99.90
6375;DHT22;35400;45.472;-122.822;2023-05-29T07:00:41;14.50;99.90
6375;DHT22;35400;45.472;-122.822;2023-05-29T07:03:22;14.50;99.90
6375;DHT22;35400;45.472;-122.822;2023-05-29T07:05:48;14.40;99.90
6375;DHT22;35400;45.472;-122.822;2023-05-29T07:08:15;14.40;99.90
6375;DHT22;35400;45.472;-122.822;2023-05-29T07:10:42;14.30;99.90
6375;DHT22;35400;45.472;-122.822;2023-05-29T07:13:09;14.20;99.90
6375;DHT22;35400;45.472;-122.822;2023-05-29T07:15:37;14.20;99.90
6375;DHT22;35400;45.472;-122.822;2023-05-29T07:18:05;14.10;99.90
6375;DHT22;35400;45.472;-122.822;2023-05-29T07:20:32;14.10;99.90
6375;DHT22;35400;45.472;-122.822;2023-05-29T07:22:59;14.00;99.90
6375;DHT22;35400;45.472;-122.822;2023-05-29T07:25:26;14.00;99.90
6375;DHT22;35400;45.472;-122.822;2023-05-29T07:27:53;13.90;99.90
6375;DHT22;35400;45.472;-122.822;2023-05-29T07:30:20;13.90;99.90
6375;DHT22;35400;45.472;-122.822;2023-05-29T07:32:47;13.80;99.90
6375;DHT22;35400;45.472;-122.822;2023-05-29T07:35:15;13.80;99.90
6375;DHT22;35400;45.472;-122.822;2023-05-29T07:37:42;13.70;99.90
6375;DHT22;35400;45.472;-122.822;2023-05-29T07:40:13;13.70;99.90
6375;DHT22;35400;45.472;-122.822;2023-05-29T07:43:12;13.60;99.90
6375;DHT22;35400;45.472;-122.822;2023-05-29T07:45:54;13.60;99.90
6375;DHT22;35400;45.472;-122.822;2023-05-29T07:48:22;13.50;99.90
6375;DHT22;35400;45.472;-122.822;2023-05-29T07:50:50;13.50;99.90
6375;DHT22;35400;45.472;-122.822;2023-05-29T07:53:18;13.40;99.90
6375;DHT22;35400;45.472;-122.822;2023-05-29T07:55:46;13.40;99.90
6375;DHT22;35400;45.472;-122.822;2023-05-29T07:58:13;13.30;99.90
6375;DHT22;35400;45.472;-122.822;2023-05-29T08:00:44;13.20;99.90
6375;DHT22;35400;45.472;-122.822;2023-05-29T08:03:12;13.20;99.90
6375;DHT22;35400;45.472;-122.822;2023-05-29T08:05:57;13.10;99.90
6375;DHT22;35400;45.472;-122.822;2023-05-29T08:08:25;13.10;99.90
6375;DHT22;35400;45.472;-122.822;2023-05-29T08:10:52;13.10;99.90
6375;DHT22;35400;45.472;-122.822;2023-05-29T08:13:19;13.00;99.90
6375;DHT22;35400;45.472;-122.822;2023-05-29T08:15:47;12.90;99.90
6375;DHT22;35400;45.472;-122.822;2023-05-29T08:18:14;12.90;99.90
6375;DHT22;35400;45.472;-122.822;2023-05-29T08:20:41;12.90;99.90
6375;DHT22;35400;45.472;-122.822;2023-05-29T08:23:09;12.80;99.90
6375;DHT22;35400;45.472;-122.822;2023-05-29T08:25:35;12.80;99.90
6375;DHT22;35400;45.472;-122.822;2023-05-29T08:28:02;12.80;99.90
6375;DHT22;35400;45.472;-122.822;2023-05-29T08:30:29;12.60;99.90
6375;DHT22;35400;45.472;-122.822;2023-05-29T08:32:56;12.70;99.90
6375;DHT22;35400;45.472;-122.822;2023-05-29T08:35:23;12.70;99.90
6375;DHT22;35400;45.472;-122.822;2023-05-29T08:37:50;12.50;99.90
6375;DHT22;35400;45.472;-122.822;2023-05-29T08:40:17;12.70;99.90
6375;DHT22;35400;45.472;-122.822;2023-05-29T08:42:56;12.60;99.90
6375;DHT22;35400;45.472;-122.822;2023-05-29T08:45:24;12.50;99.90
6375;DHT22;35400;45.472;-122.822;2023-05-29T08:47:53;12.50;99.90
6375;DHT22;35400;45.472;-122.822;2023-05-29T08:50:21;12.40;99.90
6375;DHT22;35400;45.472;-122.822;2023-05-29T08:52:49;12.40;99.90
6375;DHT22;35400;45.472;-122.822;2023-05-29T08:55:17;12.30;99.90
6375;DHT22;35400;45.472;-122.822;2023-05-29T08:57:44;12.30;99.90
6375;DHT22;35400;45.472;-122.822;2023-05-29T09:00:13;12.20;99.90
6375;DHT22;35400;45.472;-122.822;2023-05-29T09:07:40;12.20;99.90
6375;DHT22;35400;45.472;-122.822;2023-05-29T09:15:06;12.00;99.90
6375;DHT22;35400;45.472;-122.822;2023-05-29T09:17:34;12.10;99.90
6375;DHT22;35400;45.472;-122.822;2023-05-29T09:20:01;12.00;99.90
6375;DHT22;35400;45.472;-122.822;2023-05-29T09:22:31;12.00;99.90
6375;DHT22;35400;45.472;-122.822;2023-05-29T09:24:58;12.00;99.90
6375;DHT22;35400;45.472;-122.822;2023-05-29T09:27:25;11.90;99.90
6375;DHT22;35400;45.472;-122.822;2023-05-29T09:29:52;11.90;99.90
6375;DHT22;35400;45.472;-122.822;2023-05-29T09:32:19;11.90;99.90
6375;DHT22;35400;45.472;-122.822;2023-05-29T09:37:13;11.70;99.90
6375;DHT22;35400;45.472;-122.822;2023-05-29T09:39:50;11.70;99.90
6375;DHT22;35400;45.472;-122.822;2023-05-29T09:42:20;11.70;99.90
6375;DHT22;35400;45.472;-122.822;2023-05-29T09:44:52;11.70;99.90
6375;DHT22;35400;45.472;-122.822;2023-05-29T09:47:19;11.60;99.90
6375;DHT22;35400;45.472;-122.822;2023-05-29T09:49:47;11.60;99.90
6375;DHT22;35400;45.472;-122.822;2023-05-29T09:52:14;11.50;99.90
6375;DHT22;35400;45.472;-122.822;2023-05-29T09:54:44;11.40;99.90
6375;DHT22;35400;45.472;-122.822;2023-05-29T09:57:16;11.40;99.90
6375;DHT22;35400;45.472;-122.822;2023-05-29T09:59:46;11.40;99.90
6375;DHT22;35400;45.472;-122.822;2023-05-29T10:02:21;11.30;99.90
6375;DHT22;35400;45.472;-122.822;2023-05-29T10:04:48;11.30;99.90
6375;DHT22;35400;45.472;-122.822;2023-05-29T10:07:29;11.20;99.90
6375;DHT22;35400;45.472;-122.822;2023-05-29T10:10:00;11.20;99.90
6375;DHT22;35400;45.472;-122.822;2023-05-29T10:12:29;11.20;99.90
6375;DHT22;35400;45.472;-122.822;2023-05-29T10:14:59;11.10;99.90
6375;DHT22;35400;45.472;-122.822;2023-05-29T10:17:32;11.10;99.90
6375;DHT22;35400;45.472;-122.822;2023-05-29T10:20:02;11.00;99.90
6375;DHT22;35400;45.472;-122.822;2023-05-29T10:22:32;10.90;99.90
6375;DHT22;35400;45.472;-122.822;2023-05-29T10:25:00;10.90;99.90
6375;DHT22;35400;45.472;-122.822;2023-05-29T10:27:27;10.90;99.90
6375;DHT22;35400;45.472;-122.822;2023-05-29T10:30:04;10.80;99.90
6375;DHT22;35400;45.472;-122.822;2023-05-29T10:32:40;10.80;99.90
6375;DHT22;35400;45.472;-122.822;2023-05-29T10:37:52;10.70;99.90
6375;DHT22;35400;45.472;-122.822;2023-05-29T10:40:26;10.70;99.90
6375;DHT22;35400;45.472;-122.822;2023-05-29T10:42:53;10.70;99.90
6375;DHT22;35400;45.472;-122.822;2023-05-29T10:50:42;10.50;99.90
6375;DHT22;35400;45.472;-122.822;2023-05-29T10:53:14;10.50;99.90
6375;DHT22;35400;45.472;-122.822;2023-05-29T10:55:41;10.50;99.90
6375;DHT22;35400;45.472;-122.822;2023-05-29T10:58:28;10.40;99.90
6375;DHT22;35400;45.472;-122.822;2023-05-29T11:00:56;10.40;99.90
6375;DHT22;35400;45.472;-122.822;2023-05-29T11:03:31;10.40;99.90
6375;DHT22;35400;45.472;-122.822;2023-05-29T11:06:06;10.30;99.90
6375;DHT22;35400;45.472;-122.822;2023-05-29T11:08:45;10.30;99.90
6375;DHT22;35400;45.472;-122.822;2023-05-29T11:11:28;10.30;99.90
6375;DHT22;35400;45.472;-122.822;2023-05-29T11:13:57;10.30;99.90
6375;DHT22;35400;45.472;-122.822;2023-05-29T11:18:57;10.10;99.90
6375;DHT22;35400;45.472;-122.822;2023-05-29T11:26:46;10.10;99.90
6375;DHT22;35400;45.472;-122.822;2023-05-29T11:29:13;10.00;99.90
6375;DHT22;35400;45.472;-122.822;2023-05-29T11:31:40;10.00;99.90
6375;DHT22;35400;45.472;-122.822;2023-05-29T11:34:12;10.00;99.90
6375;DHT22;35400;45.472;-122.822;2023-05-29T11:36:40;10.00;99.90
6375;DHT22;35400;45.472;-122.822;2023-05-29T11:39:09;10.00;99.90
6375;DHT22;35400;45.472;-122.822;2023-05-29T11:41:36;9.90;99.90
6375;DHT22;35400;45.472;-122.822;2023-05-29T11:44:04;9.90;99.90
6375;DHT22;35400;45.472;-122.822;2023-05-29T11:46:35;9.90;99.90
6375;DHT22;35400;45.472;-122.822;2023-05-29T11:49:02;9.80;99.90
6375;DHT22;35400;45.472;-122.822;2023-05-29T11:51:29;9.80;99.90
6375;DHT22;35400;45.472;-122.822;2023-05-29T11:53:56;9.80;99.90
6375;DHT22;35400;45.472;-122.822;2023-05-29T11:56:29;9.80;99.90
6375;DHT22;35400;45.472;-122.822;2023-05-29T11:58:58;9.70;99.90
6375;DHT22;35400;45.472;-122.822;2023-05-29T12:01:26;9.70;99.90
6375;DHT22;35400;45.472;-122.822;2023-05-29T12:03:54;9.60;99.90
6375;DHT22;35400;45.472;-122.822;2023-05-29T12:06:34;9.60;99.90
6375;DHT22;35400;45.472;-122.822;2023-05-29T12:09:02;9.60;99.90
6375;DHT22;35400;45.472;-122.822;2023-05-29T12:11:31;9.50;99.90
6375;DHT22;35400;45.472;-122.822;2023-05-29T12:13:59;9.50;99.90
6375;DHT22;35400;45.472;-122.822;2023-05-29T12:16:31;9.50;99.90
6375;DHT22;35400;45.472;-122.822;2023-05-29T12:19:00;9.40;99.90
6375;DHT22;35400;45.472;-122.822;2023-05-29T12:21:27;9.40;99.90
6375;DHT22;35400;45.472;-122.822;2023-05-29T12:23:54;9.40;99.90
6375;DHT22;35400;45.472;-122.822;2023-05-29T12:26:24;9.30;99.90
6375;DHT22;35400;45.472;-122.822;2023-05-29T12:28:52;9.30;99.90
6375;DHT22;35400;45.472;-122.822;2023-05-29T12:31:29;9.30;99.90
6375;DHT22;35400;45.472;-122.822;2023-05-29T12:34:11;9.30;99.90
6375;DHT22;35400;45.472;-122.822;2023-05-29T12:36:41;9.30;99.90
6375;DHT22;35400;45.472;-122.822;2023-05-29T12:39:08;9.20;99.90
6375;DHT22;35400;45.472;-122.822;2023-05-29T12:41:36;9.20;99.90
6375;DHT22;35400;45.472;-122.822;2023-05-29T12:44:05;9.20;99.90
6375;DHT22;35400;45.472;-122.822;2023-05-29T12:46:42;9.20;99.90
6375;DHT22;35400;45.472;-122.822;2023-05-29T12:49:17;9.20;99.90
6375;DHT22;35400;45.472;-122.822;2023-05-29T12:51:47;9.20;99.90
6375;DHT22;35400;45.472;-122.822;2023-05-29T12:54:15;9.10;99.90
6375;DHT22;35400;45.472;-122.822;2023-05-29T12:56:42;9.20;99.90
6375;DHT22;35400;45.472;-122.822;2023-05-29T12:59:10;9.20;99.90
6375;DHT22;35400;45.472;-122.822;2023-05-29T13:01:37;9.10;99.90
6375;DHT22;35400;45.472;-122.822;2023-05-29T13:04:05;9.20;99.90
6375;DHT22;35400;45.472;-122.822;2023-05-29T13:06:37;9.20;99.90
6375;DHT22;35400;45.472;-122.822;2023-05-29T13:09:04;9.20;99.90
6375;DHT22;35400;45.472;-122.822;2023-05-29T13:11:35;9.30;99.90
6375;DHT22;35400;45.472;-122.822;2023-05-29T13:14:02;9.40;99.90
6375;DHT22;35400;45.472;-122.822;2023-05-29T13:16:29;9.40;99.90
6375;DHT22;35400;45.472;-122.822;2023-05-29T13:18:56;9.40;99.90
6375;DHT22;35400;45.472;-122.822;2023-05-29T13:21:23;9.50;99.90
6375;DHT22;35400;45.472;-122.822;2023-05-29T13:23:50;9.60;99.90
6375;DHT22;35400;45.472;-122.822;2023-05-29T13:26:17;9.60;99.90
6375;DHT22;35400;45.472;-122.822;2023-05-29T13:28:43;9.70;99.90
6375;DHT22;35400;45.472;-122.822;2023-05-29T13:31:10;9.80;99.90
6375;DHT22;35400;45.472;-122.822;2023-05-29T13:33:37;9.80;99.90
6375;DHT22;35400;45.472;-122.822;2023-05-29T13:36:04;9.90;99.90
6375;DHT22;35400;45.472;-122.822;2023-05-29T13:38:31;9.90;99.90
6375;DHT22;35400;45.472;-122.822;2023-05-29T13:40:58;10.00;99.90
6375;DHT22;35400;45.472;-122.822;2023-05-29T13:43:25;10.10;99.90
6375;DHT22;35400;45.472;-122.822;2023-05-29T13:45:52;10.10;99.90
6375;DHT22;35400;45.472;-122.822;2023-05-29T13:48:18;10.20;99.90
6375;DHT22;35400;45.472;-122.822;2023-05-29T13:50:45;10.30;99.90
6375;DHT22;35400;45.472;-122.822;2023-05-29T13:53:12;10.40;99.90
6375;DHT22;35400;45.472;-122.822;2023-05-29T13:55:40;10.50;99.90
6375;DHT22;35400;45.472;-122.822;2023-05-29T13:58:08;10.60;99.90
6375;DHT22;35400;45.472;-122.822;2023-05-29T14:00:34;10.70;99.90
6375;DHT22;35400;45.472;-122.822;2023-05-29T14:03:01;10.70;99.90
6375;DHT22;35400;45.472;-122.822;2023-05-29T14:05:28;10.80;99.90
6375;DHT22;35400;45.472;-122.822;2023-05-29T14:07:55;10.90;99.90
6375;DHT22;35400;45.472;-122.822;2023-05-29T14:10:21;11.00;99.90
6375;DHT22;35400;45.472;-122.822;2023-05-29T14:12:48;11.00;99.90
6375;DHT22;35400;45.472;-122.822;2023-05-29T14:15:15;11.10;99.90
6375;DHT22;35400;45.472;-122.822;2023-05-29T14:17:42;11.20;99.90
6375;DHT22;35400;45.472;-122.822;2023-05-29T14:20:09;11.30;99.90
6375;DHT22;35400;45.472;-122.822;2023-05-29T14:22:36;11.40;99.90
6375;DHT22;35400;45.472;-122.822;2023-05-29T14:25:04;11.50;99.90
6375;DHT22;35400;45.472;-122.822;2023-05-29T14:27:31;11.60;99.90
6375;DHT22;35400;45.472;-122.822;2023-05-29T14:29:57;11.80;99.90
6375;DHT22;35400;45.472;-122.822;2023-05-29T14:32:24;11.80;99.90
6375;DHT22;35400;45.472;-122.822;2023-05-29T14:34:52;12.00;99.90
6375;DHT22;35400;45.472;-122.822;2023-05-29T14:37:18;12.10;99.90
6375;DHT22;35400;45.472;-122.822;2023-05-29T14:39:46;12.20;99.90
6375;DHT22;35400;45.472;-122.822;2023-05-29T14:42:12;12.30;99.90
6375;DHT22;35400;45.472;-122.822;2023-05-29T14:44:39;12.50;99.90
6375;DHT22;35400;45.472;-122.822;2023-05-29T14:47:06;12.60;99.90
6375;DHT22;35400;45.472;-122.822;2023-05-29T14:49:33;12.70;99.90
6375;DHT22;35400;45.472;-122.822;2023-05-29T14:52:03;12.90;99.90
6375;DHT22;35400;45.472;-122.822;2023-05-29T14:54:30;13.20;99.90
6375;DHT22;35400;45.472;-122.822;2023-05-29T14:56:57;13.90;99.90
6375;DHT22;35400;45.472;-122.822;2023-05-29T14:59:24;14.00;99.90
6375;DHT22;35400;45.472;-122.822;2023-05-29T15:01:51;14.60;99.90
6375;DHT22;35400;45.472;-122.822;2023-05-29T15:04:20;14.90;99.90
6375;DHT22;35400;45.472;-122.822;2023-05-29T15:06:47;15.20;99.90
6375;DHT22;35400;45.472;-122.822;2023-05-29T15:09:14;15.30;99.90
6375;DHT22;35400;45.472;-122.822;2023-05-29T15:11:41;15.40;99.90
6375;DHT22;35400;45.472;-122.822;2023-05-29T15:14:08;15.50;99.90
6375;DHT22;35400;45.472;-122.822;2023-05-29T15:16:35;15.70;99.90
6375;DHT22;35400;45.472;-122.822;2023-05-29T15:19:02;15.70;99.90
6375;DHT22;35400;45.472;-122.822;2023-05-29T15:21:29;15.80;99.90
6375;DHT22;35400;45.472;-122.822;2023-05-29T15:23:56;15.90;99.90
6375;DHT22;35400;45.472;-122.822;2023-05-29T15:26:23;16.00;99.90
6375;DHT22;35400;45.472;-122.822;2023-05-29T15:28:50;16.20;99.90
6375;DHT22;35400;45.472;-122.822;2023-05-29T15:31:16;16.20;99.90
6375;DHT22;35400;45.472;-122.822;2023-05-29T15:33:44;16.20;99.90
6375;DHT22;35400;45.472;-122.822;2023-05-29T15:36:10;16.20;99.90
6375;DHT22;35400;45.472;-122.822;2023-05-29T15:38:37;16.20;99.90
6375;DHT22;35400;45.472;-122.822;2023-05-29T15:41:04;16.10;99.90
6375;DHT22;35400;45.472;-122.822;2023-05-29T15:43:31;16.10;99.90
6375;DHT22;35400;45.472;-122.822;2023-05-29T15:45:58;16.00;99.90
6375;DHT22;35400;45.472;-122.822;2023-05-29T15:48:26;16.00;99.90
6375;DHT22;35400;45.472;-122.822;2023-05-29T15:50:53;16.00;99.90